sensor_id;sensor_type;location;lat;lon;timestamp;P1;durP1;ratioP1;P2;durP2;ratioP2
51515;SDS011;37603;55.614;37.326;2023-04-15T00:04:32;3.9;;;1.7;;
51515;SDS011;37603;55.614;37.326;2023-04-15T00:10:30;5.5;;;1.6;;
51515;SDS011;37603;55.614;37.326;2023-04-15T00:16:29;3.2;;;1.7;;
51515;SDS011;37603;55.614;37.326;2023-04-15T00:22:28;4.9;;;1.7;;
51515;SDS011;37603;55.614;37.326;2023-04-15T00:28:27;3.5;;;1.6;;
51515;SDS011;37603;55.614;37.326;2023-04-15T00:34:26;6.0;;;1.7;;
51515;SDS011;37603;55.614;37.326;2023-04-15T00:40:24;5.8;;;1.7;;
51515;SDS011;37603;55.614;37.326;2023-04-15T00:46:23;3.9;;;1.6;;
51515;SDS011;37603;55.614;37.326;2023-04-15T00:52:22;4.1;;;1.8;;
51515;SDS011;37603;55.614;37.326;2023-04-15T00:58:20;3.5;;;1.5;;
51515;SDS011;37603;55.614;37.326;2023-04-15T01:04:19;3.6;;;1.6;;
51515;SDS011;37603;55.614;37.326;2023-04-15T01:10:18;6.3;;;1.6;;
51515;SDS011;37603;55.614;37.326;2023-04-15T01:16:17;3.7;;;1.8;;
51515;SDS011;37603;55.614;37.326;2023-04-15T01:22:16;6.3;;;1.8;;
51515;SDS011;37603;55.614;37.326;2023-04-15T01:28:14;4.9;;;2.0;;
51515;SDS011;37603;55.614;37.326;2023-04-15T01:34:13;5.5;;;1.7;;
51515;SDS011;37603;55.614;37.326;2023-04-15T01:40:12;3.1;;;1.5;;
51515;SDS011;37603;55.614;37.326;2023-04-15T01:46:10;3.7;;;1.8;;
51515;SDS011;37603;55.614;37.326;2023-04-15T01:52:09;4.7;;;2.0;;
51515;SDS011;37603;55.614;37.326;2023-04-15T01:58:08;5.3;;;2.1;;
51515;SDS011;37603;55.614;37.326;2023-04-15T02:04:07;5.0;;;2.2;;
51515;SDS011;37603;55.614;37.326;2023-04-15T02:10:05;5.9;;;2.6;;
51515;SDS011;37603;55.614;37.326;2023-04-15T02:16:04;7.1;;;2.8;;
51515;SDS011;37603;55.614;37.326;2023-04-15T02:22:03;5.5;;;2.4;;
51515;SDS011;37603;55.614;37.326;2023-04-15T02:34:00;10.5;;;2.7;;
51515;SDS011;37603;55.614;37.326;2023-04-15T02:39:59;4.8;;;2.3;;
51515;SDS011;37603;55.614;37.326;2023-04-15T02:45:58;6.2;;;2.2;;
51515;SDS011;37603;55.614;37.326;2023-04-15T02:51:56;4.6;;;1.8;;
51515;SDS011;37603;55.614;37.326;2023-04-15T02:57:55;6.5;;;1.9;;
51515;SDS011;37603;55.614;37.326;2023-04-15T03:03:54;4.0;;;1.9;;
51515;SDS011;37603;55.614;37.326;2023-04-15T03:09:53;5.4;;;2.3;;
51515;SDS011;37603;55.614;37.326;2023-04-15T03:15:51;7.0;;;2.2;;
51515;SDS011;37603;55.614;37.326;2023-04-15T03:21:50;7.6;;;2.4;;
51515;SDS011;37603;55.614;37.326;2023-04-15T03:27:49;5.3;;;1.8;;
51515;SDS011;37603;55.614;37.326;2023-04-15T03:33:47;5.8;;;2.1;;
51515;SDS011;37603;55.614;37.326;2023-04-15T03:39:46;5.2;;;1.9;;
51515;SDS011;37603;55.614;37.326;2023-04-15T03:45:45;5.3;;;2.3;;
51515;SDS011;37603;55.614;37.326;2023-04-15T03:51:43;4.3;;;2.0;;
51515;SDS011;37603;55.614;37.326;2023-04-15T03:57:42;5.4;;;2.1;;
51515;SDS011;37603;55.614;37.326;2023-04-15T04:03:41;4.0;;;1.6;;
51515;SDS011;37603;55.614;37.326;2023-04-15T04:09:39;4.9;;;1.9;;
51515;SDS011;37603;55.614;37.326;2023-04-15T04:15:38;4.1;;;1.8;;
51515;SDS011;37603;55.614;37.326;2023-04-15T04:21:37;5.0;;;2.1;;
51515;SDS011;37603;55.614;37.326;2023-04-15T04:27:36;4.3;;;1.8;;
51515;SDS011;37603;55.614;37.326;2023-04-15T04:39:33;6.1;;;1.8;;
51515;SDS011;37603;55.614;37.326;2023-04-15T04:45:32;2.4;;;1.5;;
51515;SDS011;37603;55.614;37.326;2023-04-15T04:51:31;3.3;;;1.5;;
51515;SDS011;37603;55.614;37.326;2023-04-15T04:57:29;6.6;;;2.0;;
51515;SDS011;37603;55.614;37.326;2023-04-15T05:03:28;4.3;;;1.5;;
51515;SDS011;37603;55.614;37.326;2023-04-15T05:09:27;4.6;;;1.7;;
51515;SDS011;37603;55.614;37.326;2023-04-15T05:15:26;5.8;;;1.7;;
51515;SDS011;37603;55.614;37.326;2023-04-15T05:21:25;4.3;;;1.7;;
51515;SDS011;37603;55.614;37.326;2023-04-15T05:27:23;6.8;;;1.6;;
51515;SDS011;37603;55.614;37.326;2023-04-15T05:33:22;6.2;;;1.6;;
51515;SDS011;37603;55.614;37.326;2023-04-15T05:39:21;5.0;;;2.0;;
51515;SDS011;37603;55.614;37.326;2023-04-15T05:45:20;3.5;;;2.0;;
51515;SDS011;37603;55.614;37.326;2023-04-15T05:51:19;3.7;;;1.8;;
51515;SDS011;37603;55.614;37.326;2023-04-15T05:57:18;5.9;;;2.0;;
51515;SDS011;37603;55.614;37.326;2023-04-15T06:03:16;5.2;;;1.8;;
51515;SDS011;37603;55.614;37.326;2023-04-15T06:09:15;4.5;;;1.7;;
51515;SDS011;37603;55.614;37.326;2023-04-15T06:15:14;5.6;;;2.1;;
51515;SDS011;37603;55.614;37.326;2023-04-15T06:21:13;4.5;;;1.9;;
51515;SDS011;37603;55.614;37.326;2023-04-15T06:27:12;4.7;;;1.7;;
51515;SDS011;37603;55.614;37.326;2023-04-15T06:33:11;2.6;;;1.4;;
51515;SDS011;37603;55.614;37.326;2023-04-15T06:39:10;4.8;;;1.8;;
51515;SDS011;37603;55.614;37.326;2023-04-15T06:45:09;6.7;;;1.9;;
51515;SDS011;37603;55.614;37.326;2023-04-15T06:51:08;5.4;;;1.8;;
51515;SDS011;37603;55.614;37.326;2023-04-15T06:57:06;6.0;;;1.8;;
51515;SDS011;37603;55.614;37.326;2023-04-15T07:03:06;3.8;;;1.5;;
51515;SDS011;37603;55.614;37.326;2023-04-15T07:09:04;7.3;;;2.3;;
51515;SDS011;37603;55.614;37.326;2023-04-15T07:15:04;7.4;;;2.9;;
51515;SDS011;37603;55.614;37.326;2023-04-15T07:21:02;6.1;;;2.0;;
51515;SDS011;37603;55.614;37.326;2023-04-15T07:27:01;5.3;;;2.1;;
51515;SDS011;37603;55.614;37.326;2023-04-15T07:33:00;7.0;;;2.7;;
51515;SDS011;37603;55.614;37.326;2023-04-15T07:38:59;7.7;;;2.5;;
51515;SDS011;37603;55.614;37.326;2023-04-15T07:44:58;6.8;;;2.4;;
51515;SDS011;37603;55.614;37.326;2023-04-15T07:50:57;4.8;;;2.3;;
51515;SDS011;37603;55.614;37.326;2023-04-15T07:56:56;6.2;;;2.1;;
51515;SDS011;37603;55.614;37.326;2023-04-15T08:02:55;6.6;;;2.0;;
51515;SDS011;37603;55.614;37.326;2023-04-15T08:08:54;5.9;;;2.3;;
51515;SDS011;37603;55.614;37.326;2023-04-15T08:14:53;4.8;;;1.9;;
51515;SDS011;37603;55.614;37.326;2023-04-15T08:20:52;4.6;;;2.1;;
51515;SDS011;37603;55.614;37.326;2023-04-15T08:26:51;5.9;;;2.1;;
51515;SDS011;37603;55.614;37.326;2023-04-15T08:38:49;7.3;;;2.0;;
51515;SDS011;37603;55.614;37.326;2023-04-15T08:44:48;6.5;;;2.2;;
51515;SDS011;37603;55.614;37.326;2023-04-15T08:50:47;7.4;;;2.7;;
51515;SDS011;37603;55.614;37.326;2023-04-15T08:56:46;6.3;;;2.2;;
51515;SDS011;37603;55.614;37.326;2023-04-15T09:02:45;6.9;;;2.4;;
51515;SDS011;37603;55.614;37.326;2023-04-15T09:08:44;5.9;;;2.3;;
51515;SDS011;37603;55.614;37.326;2023-04-15T09:14:44;9.0;;;2.9;;
51515;SDS011;37603;55.614;37.326;2023-04-15T09:20:42;6.6;;;2.6;;
51515;SDS011;37603;55.614;37.326;2023-04-15T09:26:42;5.5;;;2.5;;
51515;SDS011;37603;55.614;37.326;2023-04-15T09:32:47;8.4;;;2.8;;
51515;SDS011;37603;55.614;37.326;2023-04-15T09:38:47;7.2;;;2.5;;
51515;SDS011;37603;55.614;37.326;2023-04-15T09:44:40;6.0;;;2.6;;
51515;SDS011;37603;55.614;37.326;2023-04-15T09:50:40;7.9;;;2.8;;
51515;SDS011;37603;55.614;37.326;2023-04-15T09:56:38;5.7;;;2.6;;
51515;SDS011;37603;55.614;37.326;2023-04-15T10:02:37;9.6;;;2.7;;
51515;SDS011;37603;55.614;37.326;2023-04-15T10:08:36;8.5;;;2.7;;
51515;SDS011;37603;55.614;37.326;2023-04-15T10:14:35;6.4;;;2.9;;
51515;SDS011;37603;55.614;37.326;2023-04-15T10:20:34;9.9;;;3.0;;
51515;SDS011;37603;55.614;37.326;2023-04-15T10:26:33;8.6;;;2.8;;
51515;SDS011;37603;55.614;37.326;2023-04-15T10:32:32;5.7;;;2.7;;
51515;SDS011;37603;55.614;37.326;2023-04-15T10:38:32;7.7;;;2.8;;
51515;SDS011;37603;55.614;37.326;2023-04-15T10:44:30;8.0;;;2.9;;
51515;SDS011;37603;55.614;37.326;2023-04-15T10:50:29;7.1;;;2.7;;
51515;SDS011;37603;55.614;37.326;2023-04-15T10:56:28;4.7;;;3.0;;
51515;SDS011;37603;55.614;37.326;2023-04-15T11:14:25;5.8;;;2.9;;
51515;SDS011;37603;55.614;37.326;2023-04-15T11:20:24;5.6;;;2.5;;
51515;SDS011;37603;55.614;37.326;2023-04-15T11:26:25;4.8;;;2.2;;
51515;SDS011;37603;55.614;37.326;2023-04-15T11:32:23;7.6;;;2.7;;
51515;SDS011;37603;55.614;37.326;2023-04-15T11:38:22;8.4;;;2.4;;
51515;SDS011;37603;55.614;37.326;2023-04-15T11:44:21;6.7;;;2.6;;
51515;SDS011;37603;55.614;37.326;2023-04-15T11:50:21;5.9;;;2.5;;
51515;SDS011;37603;55.614;37.326;2023-04-15T11:56:20;5.2;;;2.1;;
51515;SDS011;37603;55.614;37.326;2023-04-15T12:02:18;6.2;;;2.5;;
51515;SDS011;37603;55.614;37.326;2023-04-15T12:08:17;4.5;;;2.3;;
51515;SDS011;37603;55.614;37.326;2023-04-15T12:14:20;4.8;;;2.5;;
51515;SDS011;37603;55.614;37.326;2023-04-15T12:20:19;6.9;;;2.5;;
51515;SDS011;37603;55.614;37.326;2023-04-15T12:26:14;4.5;;;2.4;;
51515;SDS011;37603;55.614;37.326;2023-04-15T12:32:14;8.6;;;2.7;;
51515;SDS011;37603;55.614;37.326;2023-04-15T12:38:12;5.9;;;2.5;;
51515;SDS011;37603;55.614;37.326;2023-04-15T12:44:11;6.8;;;3.2;;
51515;SDS011;37603;55.614;37.326;2023-04-15T12:50:11;19.0;;;15.3;;
51515;SDS011;37603;55.614;37.326;2023-04-15T12:56:10;10.9;;;5.2;;
51515;SDS011;37603;55.614;37.326;2023-04-15T13:02:09;8.2;;;3.7;;
51515;SDS011;37603;55.614;37.326;2023-04-15T13:08:08;12.2;;;7.9;;
51515;SDS011;37603;55.614;37.326;2023-04-15T13:14:08;12.5;;;6.9;;
51515;SDS011;37603;55.614;37.326;2023-04-15T13:20:06;5.6;;;3.2;;
51515;SDS011;37603;55.614;37.326;2023-04-15T13:26:06;6.7;;;3.4;;
51515;SDS011;37603;55.614;37.326;2023-04-15T13:32:05;7.5;;;3.8;;
51515;SDS011;37603;55.614;37.326;2023-04-15T13:38:04;5.8;;;3.6;;
51515;SDS011;37603;55.614;37.326;2023-04-15T13:44:02;12.8;;;7.2;;
51515;SDS011;37603;55.614;37.326;2023-04-15T13:50:02;28.9;;;18.3;;
51515;SDS011;37603;55.614;37.326;2023-04-15T13:56:01;9.2;;;5.8;;
51515;SDS011;37603;55.614;37.326;2023-04-15T14:02:01;9.0;;;5.6;;
51515;SDS011;37603;55.614;37.326;2023-04-15T14:07:59;9.2;;;5.1;;
51515;SDS011;37603;55.614;37.326;2023-04-15T14:13:59;12.6;;;6.7;;
51515;SDS011;37603;55.614;37.326;2023-04-15T14:19:57;17.2;;;11.5;;
51515;SDS011;37603;55.614;37.326;2023-04-15T14:25:56;8.5;;;3.2;;
51515;SDS011;37603;55.614;37.326;2023-04-15T14:31:56;5.7;;;2.8;;
51515;SDS011;37603;55.614;37.326;2023-04-15T14:37:55;8.2;;;3.5;;
51515;SDS011;37603;55.614;37.326;2023-04-15T14:43:54;10.2;;;3.6;;
51515;SDS011;37603;55.614;37.326;2023-04-15T14:49:53;6.6;;;3.1;;
51515;SDS011;37603;55.614;37.326;2023-04-15T14:55:52;12.0;;;5.6;;
51515;SDS011;37603;55.614;37.326;2023-04-15T15:01:51;6.2;;;2.7;;
51515;SDS011;37603;55.614;37.326;2023-04-15T15:07:50;11.1;;;6.1;;
51515;SDS011;37603;55.614;37.326;2023-04-15T15:13:50;10.9;;;5.5;;
51515;SDS011;37603;55.614;37.326;2023-04-15T15:19:49;7.5;;;4.2;;
51515;SDS011;37603;55.614;37.326;2023-04-15T15:25:48;36.2;;;23.3;;
51515;SDS011;37603;55.614;37.326;2023-04-15T15:31:47;17.3;;;11.5;;
51515;SDS011;37603;55.614;37.326;2023-04-15T15:37:46;5.1;;;2.3;;
51515;SDS011;37603;55.614;37.326;2023-04-15T15:43:45;4.4;;;2.4;;
51515;SDS011;37603;55.614;37.326;2023-04-15T15:49:44;38.3;;;28.7;;
51515;SDS011;37603;55.614;37.326;2023-04-15T15:55:43;7.5;;;2.9;;
51515;SDS011;37603;55.614;37.326;2023-04-15T16:01:42;13.7;;;6.2;;
51515;SDS011;37603;55.614;37.326;2023-04-15T16:07:41;6.2;;;2.7;;
51515;SDS011;37603;55.614;37.326;2023-04-15T16:19:40;5.6;;;3.0;;
51515;SDS011;37603;55.614;37.326;2023-04-15T16:25:40;7.1;;;3.0;;
51515;SDS011;37603;55.614;37.326;2023-04-15T16:31:38;5.6;;;3.0;;
51515;SDS011;37603;55.614;37.326;2023-04-15T16:37:37;7.1;;;3.4;;
51515;SDS011;37603;55.614;37.326;2023-04-15T16:43:36;7.2;;;3.6;;
51515;SDS011;37603;55.614;37.326;2023-04-15T16:49:35;7.3;;;3.8;;
51515;SDS011;37603;55.614;37.326;2023-04-15T16:55:34;7.2;;;3.6;;
51515;SDS011;37603;55.614;37.326;2023-04-15T17:01:33;6.3;;;3.6;;
51515;SDS011;37603;55.614;37.326;2023-04-15T17:07:32;10.2;;;4.2;;
51515;SDS011;37603;55.614;37.326;2023-04-15T17:13:31;10.8;;;4.5;;
51515;SDS011;37603;55.614;37.326;2023-04-15T17:19:30;11.0;;;5.3;;
51515;SDS011;37603;55.614;37.326;2023-04-15T17:25:29;9.8;;;5.0;;
51515;SDS011;37603;55.614;37.326;2023-04-15T17:31:28;14.1;;;6.3;;
51515;SDS011;37603;55.614;37.326;2023-04-15T17:37:27;15.3;;;6.6;;
51515;SDS011;37603;55.614;37.326;2023-04-15T17:43:25;11.5;;;4.5;;
51515;SDS011;37603;55.614;37.326;2023-04-15T17:49:25;14.6;;;6.7;;
51515;SDS011;37603;55.614;37.326;2023-04-15T17:55:23;19.0;;;10.5;;
51515;SDS011;37603;55.614;37.326;2023-04-15T18:01:22;39.7;;;24.4;;
51515;SDS011;37603;55.614;37.326;2023-04-15T18:07:21;44.2;;;26.8;;
51515;SDS011;37603;55.614;37.326;2023-04-15T18:13:20;27.8;;;15.5;;
51515;SDS011;37603;55.614;37.326;2023-04-15T18:19:18;32.4;;;22.0;;
51515;SDS011;37603;55.614;37.326;2023-04-15T18:25:17;26.3;;;18.3;;
51515;SDS011;37603;55.614;37.326;2023-04-15T18:31:16;18.9;;;12.6;;
51515;SDS011;37603;55.614;37.326;2023-04-15T18:37:15;17.4;;;8.1;;
51515;SDS011;37603;55.614;37.326;2023-04-15T18:43:14;16.4;;;7.2;;
51515;SDS011;37603;55.614;37.326;2023-04-15T18:49:13;14.6;;;6.9;;
51515;SDS011;37603;55.614;37.326;2023-04-15T18:55:11;18.0;;;7.5;;
51515;SDS011;37603;55.614;37.326;2023-04-15T19:01:10;19.4;;;7.4;;
51515;SDS011;37603;55.614;37.326;2023-04-15T19:07:09;17.2;;;8.4;;
51515;SDS011;37603;55.614;37.326;2023-04-15T19:13:09;20.3;;;8.6;;
51515;SDS011;37603;55.614;37.326;2023-04-15T19:19:07;19.3;;;8.9;;
51515;SDS011;37603;55.614;37.326;2023-04-15T19:31:05;20.6;;;8.4;;
51515;SDS011;37603;55.614;37.326;2023-04-15T19:37:03;17.5;;;8.1;;
51515;SDS011;37603;55.614;37.326;2023-04-15T19:43:02;20.9;;;8.5;;
51515;SDS011;37603;55.614;37.326;2023-04-15T19:54:59;19.2;;;8.9;;
51515;SDS011;37603;55.614;37.326;2023-04-15T20:06:57;26.4;;;14.9;;
51515;SDS011;37603;55.614;37.326;2023-04-15T20:18:55;19.0;;;10.0;;
51515;SDS011;37603;55.614;37.326;2023-04-15T20:24:53;20.6;;;10.0;;
51515;SDS011;37603;55.614;37.326;2023-04-15T20:30:52;20.8;;;10.4;;
51515;SDS011;37603;55.614;37.326;2023-04-15T20:36:51;24.1;;;9.9;;
51515;SDS011;37603;55.614;37.326;2023-04-15T20:42:50;20.2;;;9.8;;
51515;SDS011;37603;55.614;37.326;2023-04-15T20:48:48;22.2;;;10.0;;
51515;SDS011;37603;55.614;37.326;2023-04-15T20:54:47;23.9;;;9.9;;
51515;SDS011;37603;55.614;37.326;2023-04-15T21:00:46;25.4;;;10.0;;
51515;SDS011;37603;55.614;37.326;2023-04-15T21:06:45;26.3;;;9.7;;
51515;SDS011;37603;55.614;37.326;2023-04-15T21:12:43;22.7;;;9.4;;
51515;SDS011;37603;55.614;37.326;2023-04-15T21:18:42;19.2;;;9.1;;
51515;SDS011;37603;55.614;37.326;2023-04-15T21:24:41;12.6;;;7.0;;
51515;SDS011;37603;55.614;37.326;2023-04-15T21:30:40;12.7;;;6.6;;
51515;SDS011;37603;55.614;37.326;2023-04-15T21:36:39;11.5;;;6.3;;
51515;SDS011;37603;55.614;37.326;2023-04-15T21:42:37;11.9;;;6.1;;
51515;SDS011;37603;55.614;37.326;2023-04-15T21:48:36;12.9;;;5.9;;
51515;SDS011;37603;55.614;37.326;2023-04-15T21:54:35;11.7;;;5.4;;
51515;SDS011;37603;55.614;37.326;2023-04-15T22:00:34;10.3;;;5.2;;
51515;SDS011;37603;55.614;37.326;2023-04-15T22:06:33;11.4;;;5.4;;
51515;SDS011;37603;55.614;37.326;2023-04-15T22:12:31;9.9;;;5.1;;
51515;SDS011;37603;55.614;37.326;2023-04-15T22:18:30;7.6;;;3.8;;
51515;SDS011;37603;55.614;37.326;2023-04-15T22:30:28;8.1;;;4.0;;
51515;SDS011;37603;55.614;37.326;2023-04-15T22:36:26;9.8;;;4.1;;
51515;SDS011;37603;55.614;37.326;2023-04-15T22:42:25;8.1;;;4.2;;
51515;SDS011;37603;55.614;37.326;2023-04-15T22:48:24;6.9;;;3.8;;
51515;SDS011;37603;55.614;37.326;2023-04-15T22:54:23;8.8;;;4.0;;
51515;SDS011;37603;55.614;37.326;2023-04-15T23:00:22;6.5;;;3.8;;
51515;SDS011;37603;55.614;37.326;2023-04-15T23:06:21;8.6;;;3.8;;
51515;SDS011;37603;55.614;37.326;2023-04-15T23:12:19;8.2;;;4.1;;
51515;SDS011;37603;55.614;37.326;2023-04-15T23:18:18;9.3;;;4.0;;
51515;SDS011;37603;55.614;37.326;2023-04-15T23:24:17;7.5;;;4.1;;
51515;SDS011;37603;55.614;37.326;2023-04-15T23:30:16;6.9;;;4.0;;
51515;SDS011;37603;55.614;37.326;2023-04-15T23:36:15;7.9;;;4.2;;
51515;SDS011;37603;55.614;37.326;2023-04-15T23:42:13;6.5;;;4.1;;
51515;SDS011;37603;55.614;37.326;2023-04-15T23:48:12;6.6;;;4.2;;
51515;SDS011;37603;55.614;37.326;2023-04-15T23:54:11;8.4;;;4.4;;
